createdAt,value
2017-10-13T00:00:18.363Z,6.00
2017-10-13T00:02:46.123Z,6.03
2017-10-13T00:05:13.638Z,5.57
2017-10-13T00:07:41.163Z,6.72
2017-10-13T00:10:08.903Z,5.37
2017-10-13T00:12:36.428Z,7.20
2017-10-13T00:15:03.961Z,6.32
2017-10-13T00:17:31.788Z,7.28
2017-10-13T00:19:59.313Z,6.12
2017-10-13T00:22:27.841Z,7.00
2017-10-13T00:24:55.790Z,7.10
2017-10-13T00:27:23.323Z,7.60
2017-10-13T00:29:50.843Z,6.75
2017-10-13T00:32:18.571Z,7.62
2017-10-13T00:34:46.087Z,6.85
2017-10-13T00:37:13.615Z,7.43
2017-10-13T00:39:41.375Z,7.32
2017-10-13T00:42:08.895Z,7.32
2017-10-13T00:44:36.411Z,6.97
2017-10-13T00:47:04.231Z,7.55
2017-10-13T00:49:31.751Z,6.95
2017-10-13T00:51:59.279Z,8.50
2017-10-13T00:54:26.863Z,6.72
2017-10-13T00:56:54.388Z,7.97
2017-10-13T00:59:22.027Z,6.95
2017-10-13T01:01:49.792Z,7.20
2017-10-13T01:04:17.324Z,7.97
2017-10-13T01:06:44.860Z,6.93
2017-10-13T01:09:12.775Z,7.47
2017-10-13T01:11:40.299Z,7.00
2017-10-13T01:14:07.833Z,6.82
2017-10-13T01:16:35.422Z,8.73
2017-10-13T01:19:02.950Z,6.70
2017-10-13T01:21:30.476Z,6.80
2017-10-13T01:23:58.200Z,6.30
2017-10-13T01:26:26.071Z,7.47
2017-10-13T01:28:53.619Z,7.40
2017-10-13T01:31:21.528Z,7.20
2017-10-13T01:33:49.059Z,6.93
2017-10-13T01:36:16.583Z,6.45
2017-10-13T01:38:44.407Z,7.43
2017-10-13T01:41:11.924Z,6.43
2017-10-13T01:43:39.666Z,5.70
2017-10-13T01:46:07.394Z,6.72
2017-10-13T01:48:34.914Z,6.22
2017-10-13T01:51:02.440Z,7.72
2017-10-13T01:53:30.011Z,7.57
2017-10-13T01:55:57.534Z,6.03
2017-10-13T01:58:25.059Z,6.75
2017-10-13T02:00:52.746Z,6.18
2017-10-13T02:03:20.273Z,7.15
2017-10-13T02:05:47.806Z,7.72
2017-10-13T02:08:15.526Z,6.53
2017-10-13T02:10:43.065Z,5.80
2017-10-13T02:13:10.584Z,5.82
2017-10-13T02:15:38.751Z,6.85
2017-10-13T02:18:06.261Z,5.68
2017-10-13T02:20:33.799Z,6.40
2017-10-13T02:23:01.498Z,6.78
2017-10-13T02:25:29.016Z,4.78
2017-10-13T02:27:56.540Z,5.68
2017-10-13T02:30:24.140Z,5.47
2017-10-13T02:32:51.669Z,5.78
2017-10-13T02:35:19.196Z,5.35
2017-10-13T02:37:46.965Z,7.15
2017-10-13T02:40:14.491Z,5.95
2017-10-13T02:42:42.012Z,6.95
2017-10-13T02:45:09.736Z,6.72
2017-10-13T02:47:37.267Z,6.62
2017-10-13T02:50:04.792Z,7.28
2017-10-13T02:52:32.512Z,6.18
2017-10-13T02:55:00.080Z,6.80
2017-10-13T02:57:27.603Z,6.72
2017-10-13T02:59:55.224Z,6.00
2017-10-13T03:02:22.751Z,6.90
2017-10-13T03:04:50.279Z,6.43
2017-10-13T03:07:18.071Z,5.75
2017-10-13T03:09:45.591Z,6.00
2017-10-13T03:12:13.108Z,6.15
2017-10-13T03:14:41.055Z,6.20
2017-10-13T03:17:08.581Z,6.85
2017-10-13T03:19:36.103Z,5.57
2017-10-13T03:22:03.946Z,5.70
2017-10-13T03:24:31.512Z,6.72
2017-10-13T03:26:59.031Z,5.93
2017-10-13T03:29:26.718Z,6.68
2017-10-13T03:31:55.244Z,5.78
2017-10-13T03:34:22.772Z,6.30
2017-10-13T03:36:50.331Z,5.57
2017-10-13T03:39:17.856Z,6.25
2017-10-13T03:41:45.384Z,6.35
2017-10-13T03:44:13.097Z,5.40
2017-10-13T03:46:40.724Z,6.45
2017-10-13T03:49:08.243Z,6.22
2017-10-13T03:51:35.835Z,6.47
2017-10-13T03:54:03.363Z,5.78
2017-10-13T03:56:30.888Z,6.57
2017-10-13T03:58:58.456Z,5.25
2017-10-13T04:01:25.999Z,5.93
2017-10-13T04:03:53.527Z,6.85
2017-10-13T04:06:21.330Z,6.05
2017-10-13T04:08:48.847Z,5.47
2017-10-13T04:11:16.368Z,5.75
2017-10-13T04:13:44.006Z,5.40
2017-10-13T04:16:11.547Z,6.57
2017-10-13T04:18:39.095Z,6.05
2017-10-13T04:21:06.891Z,5.82
2017-10-13T04:23:34.422Z,6.07
2017-10-13T04:26:01.977Z,6.35
2017-10-13T04:28:29.631Z,5.80
2017-10-13T04:30:57.178Z,6.32
2017-10-13T04:33:24.695Z,6.25
2017-10-13T04:35:52.451Z,6.10
2017-10-13T04:38:20.007Z,5.43
2017-10-13T04:40:47.531Z,5.30
2017-10-13T04:43:15.418Z,6.07
2017-10-13T04:45:42.943Z,5.57
2017-10-13T04:48:10.471Z,5.43
2017-10-13T04:50:38.957Z,5.82
2017-10-13T04:53:06.500Z,4.78
2017-10-13T04:55:34.023Z,6.00
2017-10-13T04:58:01.902Z,4.62
2017-10-13T05:00:29.451Z,4.75
2017-10-13T05:02:56.974Z,5.07
2017-10-13T05:05:24.885Z,4.80
2017-10-13T05:07:52.407Z,5.80
2017-10-13T05:10:19.931Z,5.65
2017-10-13T05:12:47.688Z,5.22
2017-10-13T05:15:15.227Z,5.68
2017-10-13T05:17:42.754Z,5.55
2017-10-13T05:20:10.588Z,5.60
2017-10-13T05:22:38.182Z,5.57
2017-10-13T05:25:05.704Z,5.57
2017-10-13T05:27:33.453Z,5.40
2017-10-13T05:30:00.981Z,5.43
2017-10-13T05:32:28.502Z,6.87
2017-10-13T05:34:56.307Z,4.93
2017-10-13T05:37:23.827Z,6.40
2017-10-13T05:39:51.359Z,6.40
2017-10-13T05:42:19.106Z,5.50
2017-10-13T05:44:46.652Z,7.00
2017-10-13T05:47:14.171Z,5.90
2017-10-13T05:49:41.915Z,5.55
2017-10-13T05:52:09.465Z,5.20
2017-10-13T05:54:37.078Z,5.57
2017-10-13T05:57:04.780Z,6.68
2017-10-13T05:59:32.323Z,6.45
2017-10-13T06:01:59.849Z,6.15
2017-10-13T06:04:27.488Z,6.50
2017-10-13T06:06:55.113Z,6.10
2017-10-13T06:09:22.631Z,5.60
2017-10-13T06:11:50.451Z,6.05
2017-10-13T06:14:18.150Z,6.87
2017-10-13T06:16:45.831Z,6.03
2017-10-13T06:19:13.723Z,5.78
2017-10-13T06:21:41.523Z,6.50
2017-10-13T06:24:09.061Z,7.57
2017-10-13T06:26:36.635Z,6.53
2017-10-13T06:29:04.235Z,5.78
2017-10-13T06:31:31.798Z,6.28
2017-10-13T06:34:00.632Z,5.85
2017-10-13T06:36:29.116Z,6.70
2017-10-13T06:38:56.737Z,5.10
2017-10-13T06:41:24.438Z,5.85
2017-10-13T06:43:51.981Z,5.93
2017-10-13T06:46:19.519Z,5.70
2017-10-13T06:48:47.351Z,4.97
2017-10-13T06:51:14.900Z,6.10
2017-10-13T06:53:42.424Z,5.33
2017-10-13T06:56:10.470Z,5.50
2017-10-13T06:58:38.056Z,4.73
2017-10-13T07:01:06.549Z,5.40
2017-10-13T07:03:34.296Z,5.17
2017-10-13T07:06:01.832Z,4.87
2017-10-13T07:08:29.375Z,5.40
2017-10-13T07:10:56.983Z,4.90
2017-10-13T07:13:24.603Z,4.57
2017-10-13T07:15:52.172Z,4.83
2017-10-13T07:18:19.963Z,5.00
2017-10-13T07:20:47.547Z,5.73
2017-10-13T07:23:15.160Z,5.33
2017-10-13T07:25:42.960Z,4.60
2017-10-13T07:28:10.564Z,4.47
2017-10-13T07:30:38.119Z,4.50
2017-10-13T07:33:05.699Z,4.70
2017-10-13T07:35:33.227Z,4.47
2017-10-13T07:38:00.783Z,4.30
2017-10-13T07:40:28.703Z,4.10
2017-10-13T07:42:56.291Z,3.80
2017-10-13T07:45:23.839Z,3.80
2017-10-13T07:47:51.557Z,3.63
2017-10-13T07:50:19.165Z,4.30
2017-10-13T07:52:46.684Z,3.67
2017-10-13T07:55:14.584Z,3.77
2017-10-13T07:57:42.107Z,3.87
2017-10-13T08:00:09.632Z,4.33
2017-10-13T08:02:37.350Z,4.10
2017-10-13T08:05:05.337Z,3.93
2017-10-13T08:07:32.857Z,4.17
2017-10-13T08:10:00.408Z,4.10
2017-10-13T08:12:27.922Z,3.60
2017-10-13T08:14:55.443Z,4.20
2017-10-13T08:17:23.132Z,3.60
2017-10-13T08:19:50.648Z,3.70
2017-10-13T08:22:18.181Z,3.10
2017-10-13T08:24:45.890Z,3.47
2017-10-13T08:27:13.408Z,3.13
2017-10-13T08:29:40.932Z,3.40
2017-10-13T08:32:09.457Z,2.70
2017-10-13T08:34:37.003Z,3.20
2017-10-13T08:37:04.520Z,2.67
2017-10-13T08:39:32.084Z,2.37
2017-10-13T08:41:59.608Z,2.80
2017-10-13T08:44:27.127Z,3.20
2017-10-13T08:46:54.714Z,2.30
2017-10-13T08:49:22.232Z,3.10
2017-10-13T08:51:49.750Z,2.53
2017-10-13T08:54:17.306Z,3.23
2017-10-13T08:56:45.297Z,2.70
2017-10-13T08:59:12.828Z,2.80
2017-10-13T09:01:40.385Z,2.40
2017-10-13T09:04:07.900Z,2.57
2017-10-13T09:06:35.424Z,2.03
2017-10-13T09:09:03.117Z,2.03
2017-10-13T09:11:30.645Z,2.07
2017-10-13T09:13:58.179Z,2.03
2017-10-13T09:16:25.965Z,1.97
2017-10-13T09:18:53.495Z,2.00
2017-10-13T09:21:21.020Z,1.90
2017-10-13T09:23:48.667Z,1.57
2017-10-13T09:26:16.184Z,1.77
2017-10-13T09:28:43.698Z,1.43
2017-10-13T09:31:11.426Z,1.50
2017-10-13T09:33:38.939Z,1.20
2017-10-13T09:36:06.451Z,1.20
2017-10-13T09:38:34.199Z,1.20
2017-10-13T09:41:01.717Z,1.10
2017-10-13T09:43:29.235Z,0.90
2017-10-13T09:45:56.808Z,1.47
2017-10-13T09:48:24.327Z,1.10
2017-10-13T09:50:51.848Z,0.80
2017-10-13T09:53:19.659Z,0.93
2017-10-13T09:55:47.180Z,1.03
2017-10-13T09:58:14.699Z,0.80
2017-10-13T10:00:42.288Z,1.10
2017-10-13T10:03:09.801Z,1.27
2017-10-13T10:05:37.312Z,0.70
2017-10-13T10:08:05.219Z,0.70
2017-10-13T10:10:32.741Z,0.87
2017-10-13T10:13:00.255Z,1.10
2017-10-13T10:15:27.998Z,0.97
2017-10-13T10:17:55.511Z,0.90
2017-10-13T10:20:23.030Z,1.10
2017-10-13T10:22:50.781Z,1.07
2017-10-13T10:25:18.308Z,0.93
2017-10-13T10:27:45.823Z,0.87
2017-10-13T10:30:13.391Z,1.00
2017-10-13T10:32:40.911Z,0.80
2017-10-13T10:35:08.435Z,1.03
2017-10-13T10:37:36.339Z,0.90
2017-10-13T10:40:03.851Z,0.90
2017-10-13T10:42:31.372Z,0.70
2017-10-13T10:44:59.118Z,1.13
2017-10-13T10:47:26.631Z,1.20
2017-10-13T10:49:54.152Z,0.70
2017-10-13T10:52:21.895Z,1.10
2017-10-13T10:54:49.438Z,0.90
2017-10-13T10:57:16.956Z,0.90
2017-10-13T10:59:44.520Z,0.73
2017-10-13T11:02:12.035Z,0.90
2017-10-13T11:04:39.557Z,0.90
2017-10-13T11:07:07.455Z,0.80
2017-10-13T11:09:34.971Z,0.73
2017-10-13T11:12:02.493Z,1.00
2017-10-13T11:14:30.236Z,1.60
2017-10-13T11:16:57.760Z,0.70
2017-10-13T11:19:25.283Z,1.00
2017-10-13T11:21:52.850Z,1.27
2017-10-13T11:24:20.370Z,1.10
2017-10-13T11:26:47.879Z,1.10
2017-10-13T11:29:15.439Z,1.57
2017-10-13T11:31:42.964Z,1.00
2017-10-13T11:34:10.484Z,1.13
2017-10-13T11:36:38.271Z,2.13
2017-10-13T11:39:05.787Z,1.20
2017-10-13T11:41:33.308Z,1.00
2017-10-13T11:44:01.053Z,1.10
2017-10-13T11:46:28.570Z,1.23
2017-10-13T11:48:56.083Z,0.90
2017-10-13T11:51:23.855Z,1.10
2017-10-13T11:53:51.371Z,1.10
2017-10-13T11:56:18.899Z,1.20
2017-10-13T11:58:46.628Z,1.80
2017-10-13T12:01:14.155Z,1.03
2017-10-13T12:03:41.823Z,0.90
2017-10-13T12:06:09.700Z,1.00
2017-10-13T12:08:37.220Z,1.13
2017-10-13T12:11:04.745Z,1.30
2017-10-13T12:13:32.483Z,0.90
2017-10-13T12:16:00.000Z,0.80
2017-10-13T12:18:27.531Z,1.30
2017-10-13T12:20:55.490Z,4.27
2017-10-13T12:23:23.140Z,5.30
2017-10-13T12:25:50.663Z,2.80
2017-10-13T12:28:18.339Z,1.10
2017-10-13T12:30:46.123Z,1.73
2017-10-13T12:33:13.682Z,1.57
2017-10-13T12:35:41.432Z,1.43
2017-10-13T12:38:08.946Z,1.20
2017-10-13T12:40:36.565Z,2.13
2017-10-13T12:43:04.307Z,1.20
2017-10-13T12:45:31.837Z,2.30
2017-10-13T12:47:59.363Z,1.80
2017-10-13T12:50:27.091Z,1.70
2017-10-13T12:52:54.639Z,1.80
2017-10-13T12:55:22.214Z,1.50
2017-10-13T12:57:49.868Z,2.10
2017-10-13T13:00:17.392Z,1.50
2017-10-13T13:02:44.922Z,1.57
2017-10-13T13:05:12.648Z,1.60
2017-10-13T13:07:40.163Z,1.50
2017-10-13T13:10:08.562Z,1.70
2017-10-13T13:12:36.478Z,1.57
2017-10-13T13:15:04.008Z,1.63
2017-10-13T13:17:31.585Z,1.83
2017-10-13T13:19:59.430Z,1.53
2017-10-13T13:22:26.954Z,1.63
2017-10-13T13:24:54.475Z,1.60
2017-10-13T13:27:22.020Z,1.67
2017-10-13T13:29:49.795Z,2.97
2017-10-13T13:32:17.558Z,2.17
2017-10-13T13:34:45.325Z,2.00
2017-10-13T13:37:12.840Z,1.50
2017-10-13T13:39:40.355Z,1.83
2017-10-13T13:42:07.932Z,1.67
2017-10-13T13:44:35.466Z,2.20
2017-10-13T13:47:03.037Z,1.70
2017-10-13T13:49:30.983Z,1.60
2017-10-13T13:51:58.827Z,1.23
2017-10-13T13:54:27.025Z,1.90
2017-10-13T13:56:54.778Z,1.93
2017-10-13T13:59:22.344Z,1.87
2017-10-13T14:01:49.864Z,1.27
2017-10-13T14:04:17.675Z,2.20
2017-10-13T14:06:45.333Z,1.50
2017-10-13T14:09:12.879Z,1.50
2017-10-13T14:11:40.472Z,1.83
2017-10-13T14:14:08.083Z,2.20
2017-10-13T14:16:35.778Z,1.60
2017-10-13T14:19:03.527Z,1.27
2017-10-13T14:21:31.128Z,1.97
2017-10-13T14:23:58.728Z,1.53
2017-10-13T14:26:26.503Z,1.87
2017-10-13T14:28:54.043Z,1.67
2017-10-13T14:31:21.565Z,1.30
2017-10-13T14:33:49.491Z,1.63
2017-10-13T14:36:17.128Z,1.50
2017-10-13T14:38:44.648Z,1.63
2017-10-13T14:41:12.388Z,1.47
2017-10-13T14:43:40.118Z,1.70
2017-10-13T14:46:07.916Z,1.37
2017-10-13T14:48:35.887Z,1.50
2017-10-13T14:51:03.448Z,1.60
2017-10-13T14:53:31.047Z,1.50
2017-10-13T14:55:58.972Z,1.27
2017-10-13T14:58:26.483Z,1.40
2017-10-13T15:00:54.090Z,1.10
2017-10-13T15:03:21.792Z,1.63
2017-10-13T15:05:49.418Z,1.60
2017-10-13T15:08:16.946Z,1.20
2017-10-13T15:10:44.711Z,1.20
2017-10-13T15:13:12.238Z,1.80
2017-10-13T15:15:39.957Z,0.97
2017-10-13T15:18:07.708Z,1.10
2017-10-13T15:20:35.237Z,1.10
2017-10-13T15:23:02.784Z,1.27
2017-10-13T15:25:35.992Z,0.80
2017-10-13T15:28:09.130Z,1.40
2017-10-13T15:30:42.395Z,1.00
2017-10-13T15:36:24.423Z,1.00
2017-10-13T15:38:57.971Z,1.20
2017-10-13T15:44:33.435Z,1.50
2017-10-13T15:47:06.928Z,1.80
2017-10-13T15:49:41.028Z,1.50
2017-10-13T15:52:14.383Z,1.00
2017-10-13T15:54:41.918Z,1.50
2017-10-13T15:57:09.517Z,1.10
2017-10-13T15:59:37.232Z,1.40
2017-10-13T16:02:05.366Z,1.50
2017-10-13T16:04:33.015Z,1.63
2017-10-13T16:07:01.702Z,1.90
2017-10-13T16:09:29.256Z,2.00
2017-10-13T16:11:57.842Z,1.37
2017-10-13T16:14:25.591Z,2.80
2017-10-13T16:16:53.165Z,2.10
2017-10-13T16:19:20.707Z,1.30
2017-10-13T16:21:48.375Z,1.73
2017-10-13T16:24:16.047Z,2.23
2017-10-13T16:26:43.669Z,2.40
2017-10-13T16:29:11.236Z,2.00
2017-10-13T16:31:38.885Z,1.63
2017-10-13T16:34:06.578Z,2.57
2017-10-13T16:36:35.176Z,1.70
2017-10-13T16:39:02.843Z,1.87
2017-10-13T16:41:30.362Z,2.53
2017-10-13T16:43:57.921Z,2.43
2017-10-13T16:46:25.837Z,1.60
2017-10-13T16:48:53.658Z,1.93
2017-10-13T16:51:22.190Z,2.40
2017-10-13T16:53:50.135Z,2.00
2017-10-13T16:56:18.608Z,2.20
2017-10-13T16:58:46.501Z,3.20
2017-10-13T17:01:14.350Z,2.00
2017-10-13T17:03:41.908Z,2.10
2017-10-13T17:06:09.774Z,2.43
2017-10-13T17:08:37.305Z,3.50
2017-10-13T17:11:05.161Z,3.20
2017-10-13T17:13:33.022Z,2.57
2017-10-13T17:16:00.800Z,2.77
2017-10-13T17:18:28.695Z,3.27
2017-10-13T17:20:56.513Z,3.50
2017-10-13T17:23:24.137Z,3.50
2017-10-13T17:25:51.737Z,4.60
2017-10-13T17:28:20.673Z,5.07
2017-10-13T17:30:48.567Z,3.23
2017-10-13T17:33:16.143Z,3.00
2017-10-13T17:35:44.187Z,2.53
2017-10-13T17:38:11.934Z,2.47
2017-10-13T17:40:40.007Z,2.50
2017-10-13T17:43:08.165Z,2.70
2017-10-13T17:45:35.695Z,3.60
2017-10-13T17:48:03.256Z,3.90
2017-10-13T17:50:31.055Z,6.07
2017-10-13T17:52:58.597Z,5.60
2017-10-13T17:55:26.179Z,6.87
2017-10-13T17:57:53.771Z,8.17
2017-10-13T18:00:21.483Z,7.03
2017-10-13T18:02:49.062Z,11.23
2017-10-13T18:05:16.856Z,7.77
2017-10-13T18:07:44.384Z,9.00
2017-10-13T18:10:14.811Z,5.03
2017-10-13T18:12:42.575Z,5.60
2017-10-13T18:15:10.246Z,5.07
2017-10-13T18:17:37.784Z,4.77
2017-10-13T18:20:07.250Z,4.40
2017-10-13T18:22:34.968Z,4.23
2017-10-13T18:25:02.828Z,3.47
2017-10-13T18:27:30.898Z,3.57
2017-10-13T18:29:58.489Z,4.47
2017-10-13T18:32:26.394Z,4.17
2017-10-13T18:34:54.501Z,4.43
2017-10-13T18:37:22.365Z,3.30
2017-10-13T18:39:50.237Z,4.50
2017-10-13T18:42:18.205Z,4.27
2017-10-13T18:44:45.805Z,6.00
2017-10-13T18:47:13.530Z,6.57
2017-10-13T18:49:41.492Z,5.30
2017-10-13T18:52:09.247Z,4.53
2017-10-13T18:54:37.503Z,4.53
2017-10-13T18:57:05.501Z,4.60
2017-10-13T18:59:33.342Z,3.77
2017-10-13T19:02:01.336Z,3.30
2017-10-13T19:04:29.375Z,3.60
2017-10-13T19:06:56.966Z,3.40
2017-10-13T19:09:24.676Z,3.83
2017-10-13T19:11:52.815Z,4.20
2017-10-13T19:14:20.495Z,3.87
2017-10-13T19:16:48.124Z,3.60
2017-10-13T19:19:15.972Z,4.60
2017-10-13T19:21:43.553Z,4.30
2017-10-13T19:24:11.108Z,4.03
2017-10-13T19:26:38.860Z,4.20
2017-10-13T19:29:06.387Z,4.77
2017-10-13T19:31:34.093Z,4.73
2017-10-13T19:34:02.845Z,4.30
2017-10-13T19:36:30.382Z,3.30
2017-10-13T19:38:58.347Z,5.20
2017-10-13T19:41:25.991Z,4.07
2017-10-13T19:43:53.609Z,4.10
2017-10-13T19:46:21.388Z,4.20
2017-10-13T19:48:49.259Z,4.23
2017-10-13T19:51:16.799Z,3.53
2017-10-13T19:53:44.440Z,3.90
2017-10-13T19:56:12.085Z,4.10
2017-10-13T19:58:39.907Z,5.40
2017-10-13T20:01:07.674Z,3.90
2017-10-13T20:03:35.674Z,4.60
2017-10-13T20:06:03.609Z,4.40
2017-10-13T20:08:31.289Z,5.00
2017-10-13T20:10:59.443Z,4.53
2017-10-13T20:13:27.309Z,4.93
2017-10-13T20:15:54.901Z,5.60
2017-10-13T20:18:22.736Z,4.17
2017-10-13T20:20:50.386Z,4.90
2017-10-13T20:23:18.057Z,4.50
2017-10-13T20:25:45.736Z,4.33
2017-10-13T20:28:13.587Z,4.77
2017-10-13T20:30:41.441Z,4.93
2017-10-13T20:33:09.220Z,8.00
2017-10-13T20:35:36.824Z,5.50
2017-10-13T20:38:04.457Z,5.83
2017-10-13T20:40:32.336Z,6.50
2017-10-13T20:42:59.945Z,5.65
2017-10-13T20:45:27.532Z,6.00
2017-10-13T20:47:55.599Z,6.53
2017-10-13T20:50:23.257Z,6.57
2017-10-13T20:52:50.858Z,5.73
2017-10-13T20:55:18.584Z,5.87
2017-10-13T20:57:46.248Z,5.72
2017-10-13T21:00:13.903Z,5.43
2017-10-13T21:02:41.857Z,5.75
2017-10-13T21:05:09.738Z,5.50
2017-10-13T21:07:37.318Z,5.72
2017-10-13T21:10:05.491Z,5.20
2017-10-13T21:12:33.180Z,5.78
2017-10-13T21:15:00.870Z,6.12
2017-10-13T21:17:28.600Z,5.25
2017-10-13T21:19:56.177Z,5.93
2017-10-13T21:22:23.711Z,6.05
2017-10-13T21:24:51.714Z,5.82
2017-10-13T21:27:19.307Z,6.95
2017-10-13T21:29:46.866Z,6.45
2017-10-13T21:32:14.618Z,5.62
2017-10-13T21:34:42.193Z,4.95
2017-10-13T21:37:09.748Z,4.65
2017-10-13T21:39:37.529Z,5.03
2017-10-13T21:42:05.092Z,5.37
2017-10-13T21:44:32.638Z,5.47
2017-10-13T21:47:00.498Z,5.10
2017-10-13T21:49:28.465Z,5.28
2017-10-13T21:51:56.025Z,4.50
2017-10-13T21:54:23.607Z,4.72
2017-10-13T21:56:51.134Z,5.78
2017-10-13T21:59:18.655Z,5.85
2017-10-13T22:01:46.342Z,4.70
2017-10-13T22:04:13.869Z,5.70
2017-10-13T22:06:41.399Z,5.32
2017-10-13T22:09:09.348Z,4.70
2017-10-13T22:11:36.871Z,6.10
2017-10-13T22:14:04.395Z,5.25
2017-10-13T22:16:32.129Z,5.25
2017-10-13T22:18:59.650Z,5.40
2017-10-13T22:21:27.176Z,4.55
2017-10-13T22:23:54.909Z,5.28
2017-10-13T22:26:22.466Z,4.60
2017-10-13T22:28:50.032Z,4.60
2017-10-13T22:31:17.791Z,5.40
2017-10-13T22:33:45.311Z,4.80
2017-10-13T22:36:12.836Z,4.97
2017-10-13T22:38:40.408Z,5.07
2017-10-13T22:41:07.938Z,5.12
2017-10-13T22:43:35.463Z,6.50
2017-10-13T22:46:03.228Z,5.05
2017-10-13T22:48:30.748Z,5.78
2017-10-13T22:50:58.271Z,6.70
2017-10-13T22:53:26.216Z,5.40
2017-10-13T22:55:53.745Z,6.78
2017-10-13T22:58:21.272Z,5.75
2017-10-13T23:00:48.936Z,5.90
2017-10-13T23:03:16.467Z,7.80
2017-10-13T23:05:44.038Z,5.82
2017-10-13T23:08:11.582Z,5.60
2017-10-13T23:10:39.146Z,5.78
2017-10-13T23:13:06.752Z,5.62
2017-10-13T23:15:34.569Z,6.18
2017-10-13T23:18:02.130Z,6.82
2017-10-13T23:20:29.686Z,6.60
2017-10-13T23:22:57.267Z,6.47
2017-10-13T23:25:24.783Z,6.32
2017-10-13T23:27:52.368Z,6.70
2017-10-13T23:30:21.603Z,6.60
2017-10-13T23:32:49.156Z,6.78
2017-10-13T23:35:17.195Z,6.80
2017-10-13T23:37:44.742Z,6.32
2017-10-13T23:40:12.263Z,6.47
2017-10-13T23:42:39.793Z,6.25
2017-10-13T23:45:08.968Z,6.12
2017-10-13T23:47:36.525Z,6.80
2017-10-13T23:50:04.064Z,8.18
2017-10-13T23:52:39.398Z,7.53
2017-10-13T23:55:06.964Z,6.95
2017-10-13T23:57:34.648Z,6.37
